createdAt,value
2018-10-19T00:01:47.245Z,39.13
2018-10-19T00:04:17.763Z,37.73
2018-10-19T00:06:48.274Z,37.80
2018-10-19T00:09:18.932Z,37.97
2018-10-19T00:11:51.187Z,37.70
2018-10-19T00:14:24.639Z,36.03
2018-10-19T00:16:55.024Z,37.23
2018-10-19T00:19:25.649Z,38.73
2018-10-19T00:21:56.281Z,39.20
2018-10-19T00:24:26.865Z,39.17
2018-10-19T00:26:57.462Z,39.47
2018-10-19T00:29:27.915Z,38.10
2018-10-19T00:31:58.355Z,38.87
2018-10-19T00:34:28.967Z,37.97
2018-10-19T00:36:59.536Z,40.10
2018-10-19T00:39:30.112Z,37.97
2018-10-19T00:42:00.582Z,38.40
2018-10-19T00:44:31.073Z,39.93
2018-10-19T00:47:01.612Z,38.23
2018-10-19T00:49:32.327Z,39.70
2018-10-19T00:52:03.270Z,39.63
2018-10-19T00:54:33.775Z,37.17
2018-10-19T00:57:04.241Z,38.60
2018-10-19T00:59:34.694Z,37.70
2018-10-19T01:02:05.305Z,35.77
2018-10-19T01:04:36.320Z,36.57
2018-10-19T01:07:07.092Z,38.03
2018-10-19T01:09:37.538Z,35.87
2018-10-19T01:12:08.343Z,35.50
2018-10-19T01:14:39.341Z,36.37
2018-10-19T01:17:09.991Z,35.20
2018-10-19T01:19:40.590Z,38.30
2018-10-19T01:22:11.397Z,38.43
2018-10-19T01:24:41.744Z,37.00
2018-10-19T01:27:12.390Z,37.47
2018-10-19T01:29:42.933Z,39.47
2018-10-19T01:32:13.470Z,38.07
2018-10-19T01:34:44.043Z,36.17
2018-10-19T01:37:14.691Z,36.23
2018-10-19T01:39:45.289Z,36.10
2018-10-19T01:42:16.085Z,34.20
2018-10-19T01:44:46.662Z,33.73
2018-10-19T01:47:17.305Z,33.37
2018-10-19T01:49:47.835Z,34.80
2018-10-19T01:52:18.258Z,33.27
2018-10-19T01:54:49.091Z,33.80
2018-10-19T01:57:20.030Z,32.07
2018-10-19T01:59:50.557Z,33.27
2018-10-19T02:02:20.981Z,32.83
2018-10-19T02:04:51.546Z,32.43
2018-10-19T02:07:22.049Z,32.00
2018-10-19T02:09:52.524Z,32.77
2018-10-19T02:12:23.457Z,33.63
2018-10-19T02:14:54.057Z,32.13
2018-10-19T02:17:24.446Z,31.87
2018-10-19T02:19:54.997Z,32.70
2018-10-19T02:22:25.940Z,33.03
2018-10-19T02:24:56.412Z,33.67
2018-10-19T02:27:26.812Z,32.20
2018-10-19T02:30:03.949Z,33.30
2018-10-19T02:32:34.311Z,31.40
2018-10-19T02:35:04.970Z,32.07
2018-10-19T02:37:35.577Z,32.60
2018-10-19T02:40:06.905Z,32.40
2018-10-19T02:42:37.843Z,31.37
2018-10-19T02:45:09.539Z,32.03
2018-10-19T02:47:40.394Z,33.57
2018-10-19T02:50:10.935Z,33.23
2018-10-19T02:52:41.474Z,33.43
2018-10-19T02:55:12.056Z,32.43
2018-10-19T02:57:42.697Z,34.37
2018-10-19T03:00:13.679Z,39.90
2018-10-19T03:02:44.164Z,40.57
2018-10-19T03:05:14.511Z,41.27
2018-10-19T03:07:45.548Z,39.87
2018-10-19T03:10:16.109Z,40.83
2018-10-19T03:12:46.758Z,40.60
2018-10-19T03:15:17.362Z,39.87
2018-10-19T03:17:47.768Z,38.83
2018-10-19T03:20:18.735Z,38.67
2018-10-19T03:22:49.559Z,39.80
2018-10-19T03:25:20.453Z,39.03
2018-10-19T03:27:50.965Z,38.17
2018-10-19T03:30:21.644Z,37.63
2018-10-19T03:32:52.288Z,37.37
2018-10-19T03:35:23.009Z,37.03
2018-10-19T03:37:53.473Z,37.03
2018-10-19T03:40:23.974Z,37.77
2018-10-19T03:42:54.563Z,35.13
2018-10-19T03:45:27.370Z,35.47
2018-10-19T03:47:59.299Z,35.77
2018-10-19T03:50:29.779Z,33.13
2018-10-19T03:53:02.568Z,35.10
2018-10-19T03:55:32.749Z,33.77
2018-10-19T03:58:03.275Z,35.40
2018-10-19T04:00:33.682Z,33.87
2018-10-19T04:03:04.708Z,33.77
2018-10-19T04:05:35.077Z,34.07
2018-10-19T04:08:05.742Z,32.70
2018-10-19T04:10:36.270Z,36.40
2018-10-19T04:13:06.622Z,34.83
2018-10-19T04:15:36.952Z,35.50
2018-10-19T04:18:07.471Z,34.77
2018-10-19T04:20:37.822Z,35.75
2018-10-19T04:23:09.513Z,35.53
2018-10-19T04:25:40.501Z,34.37
2018-10-19T04:28:10.967Z,32.87
2018-10-19T04:30:41.575Z,33.13
2018-10-19T04:33:11.820Z,33.33
2018-10-19T04:35:42.167Z,34.17
2018-10-19T04:38:12.615Z,34.43
2018-10-19T04:40:43.235Z,33.73
2018-10-19T04:43:13.457Z,35.23
2018-10-19T04:45:44.181Z,34.63
2018-10-19T04:48:14.505Z,33.80
2018-10-19T04:50:44.747Z,32.83
2018-10-19T04:53:15.488Z,32.97
2018-10-19T04:55:45.972Z,32.63
2018-10-19T04:58:16.507Z,33.90
2018-10-19T05:00:46.868Z,32.83
2018-10-19T05:03:17.373Z,32.87
2018-10-19T05:05:47.683Z,32.60
2018-10-19T05:08:18.272Z,32.43
2018-10-19T05:10:48.710Z,33.23
2018-10-19T05:13:19.328Z,32.53
2018-10-19T05:15:49.847Z,32.27
2018-10-19T05:18:20.337Z,33.17
2018-10-19T05:20:50.870Z,31.73
2018-10-19T05:23:21.335Z,32.60
2018-10-19T05:25:51.735Z,34.03
2018-10-19T05:28:22.270Z,33.03
2018-10-19T05:30:52.550Z,33.40
2018-10-19T05:33:23.104Z,32.67
2018-10-19T05:35:54.128Z,34.10
2018-10-19T05:38:24.856Z,32.97
2018-10-19T05:40:55.921Z,33.30
2018-10-19T05:43:26.358Z,33.97
2018-10-19T05:45:58.243Z,36.97
2018-10-19T05:48:28.793Z,38.50
2018-10-19T05:50:59.237Z,39.10
2018-10-19T05:53:29.867Z,38.57
2018-10-19T05:56:00.633Z,37.70
2018-10-19T05:58:31.210Z,36.97
2018-10-19T06:01:01.706Z,37.00
2018-10-19T06:03:32.219Z,34.53
2018-10-19T06:06:02.890Z,36.40
2018-10-19T06:08:33.329Z,37.87
2018-10-19T06:11:03.843Z,39.53
2018-10-19T06:13:34.425Z,35.57
2018-10-19T06:16:05.206Z,39.17
2018-10-19T06:18:36.234Z,44.03
2018-10-19T06:21:06.818Z,42.97
2018-10-19T06:23:37.354Z,49.77
2018-10-19T06:26:08.417Z,46.73
2018-10-19T06:28:38.851Z,47.20
2018-10-19T06:31:09.425Z,52.90
2018-10-19T06:33:39.984Z,44.87
2018-10-19T06:36:10.793Z,40.60
2018-10-19T06:38:41.662Z,55.93
2018-10-19T06:41:12.261Z,41.80
2018-10-19T06:43:42.775Z,40.17
2018-10-19T06:46:13.545Z,42.83
2018-10-19T06:48:44.425Z,42.07
2018-10-19T06:52:46.931Z,55.80
2018-10-19T06:55:19.537Z,41.17
2018-10-19T06:57:49.969Z,42.97
2018-10-19T07:00:20.463Z,41.53
2018-10-19T07:02:50.888Z,41.53
2018-10-19T07:05:21.448Z,40.97
2018-10-19T07:07:52.351Z,39.83
2018-10-19T07:10:23.925Z,41.87
2018-10-19T07:12:54.448Z,40.63
2018-10-19T07:15:25.243Z,41.63
2018-10-19T07:17:55.992Z,42.20
2018-10-19T07:20:26.663Z,39.87
2018-10-19T07:22:57.094Z,44.63
2018-10-19T07:25:27.581Z,45.57
2018-10-19T07:27:58.335Z,43.63
2018-10-19T07:30:28.828Z,43.90
2018-10-19T07:32:59.361Z,46.40
2018-10-19T07:35:29.991Z,47.57
2018-10-19T07:38:00.558Z,47.63
2018-10-19T07:40:31.405Z,47.98
2018-10-19T07:43:01.900Z,47.10
2018-10-19T07:45:33.032Z,48.53
2018-10-19T07:48:03.894Z,48.10
2018-10-19T07:50:34.518Z,46.50
2018-10-19T07:53:05.371Z,45.40
2018-10-19T07:55:35.903Z,49.17
2018-10-19T07:58:06.842Z,49.60
2018-10-19T08:00:37.459Z,49.67
2018-10-19T08:03:07.925Z,48.37
2018-10-19T08:05:38.298Z,47.37
2018-10-19T08:08:09.060Z,47.33
2018-10-19T08:10:39.557Z,46.77
2018-10-19T08:13:10.334Z,47.83
2018-10-19T08:15:40.933Z,45.67
2018-10-19T08:18:11.662Z,47.90
2018-10-19T08:20:42.207Z,47.47
2018-10-19T08:23:12.778Z,48.53
2018-10-19T08:25:43.737Z,48.63
2018-10-19T08:28:14.806Z,48.60
2018-10-19T08:30:45.426Z,48.70
2018-10-19T08:33:16.006Z,49.07
2018-10-19T08:35:46.470Z,49.73
2018-10-19T08:38:20.545Z,47.90
2018-10-19T08:40:51.241Z,48.83
2018-10-19T08:43:22.045Z,49.80
2018-10-19T08:45:52.707Z,47.43
2018-10-19T08:48:24.011Z,50.03
2018-10-19T08:50:55.324Z,47.43
2018-10-19T08:53:26.360Z,50.23
2018-10-19T08:55:57.554Z,49.63
2018-10-19T08:58:28.044Z,48.80
2018-10-19T09:00:58.946Z,46.53
2018-10-19T09:03:29.707Z,49.10
2018-10-19T09:06:00.528Z,49.23
2018-10-19T09:08:31.847Z,48.73
2018-10-19T09:11:02.372Z,48.40
2018-10-19T09:13:33.238Z,46.47
2018-10-19T09:16:03.904Z,48.00
2018-10-19T09:18:34.670Z,51.27
2018-10-19T09:21:05.289Z,50.70
2018-10-19T09:23:35.874Z,50.13
2018-10-19T09:26:06.554Z,52.93
2018-10-19T09:28:37.185Z,53.33
2018-10-19T09:31:07.758Z,53.87
2018-10-19T09:33:38.606Z,51.57
2018-10-19T09:36:09.429Z,51.70
2018-10-19T09:38:39.994Z,49.80
2018-10-19T09:41:10.404Z,50.40
2018-10-19T09:43:41.452Z,48.57
2018-10-19T09:46:12.169Z,49.17
2018-10-19T09:48:42.690Z,52.10
2018-10-19T09:51:13.405Z,47.67
2018-10-19T09:53:44.148Z,46.50
2018-10-19T09:56:14.572Z,49.87
2018-10-19T09:58:45.505Z,50.40
2018-10-19T10:01:20.935Z,48.77
2018-10-19T10:03:51.515Z,50.07
2018-10-19T10:06:22.081Z,48.80
2018-10-19T10:08:52.841Z,50.07
2018-10-19T10:11:23.457Z,49.63
2018-10-19T10:13:54.183Z,49.00
2018-10-19T10:16:25.025Z,48.67
2018-10-19T10:18:55.706Z,51.63
2018-10-19T10:21:26.331Z,49.60
2018-10-19T10:23:57.224Z,49.90
2018-10-19T10:26:27.700Z,46.10
2018-10-19T10:28:58.537Z,45.20
2018-10-19T10:31:29.127Z,42.37
2018-10-19T10:33:59.637Z,44.73
2018-10-19T10:36:30.457Z,44.03
2018-10-19T10:39:01.392Z,48.87
2018-10-19T10:41:31.957Z,45.97
2018-10-19T10:44:02.950Z,48.07
2018-10-19T10:46:33.476Z,45.97
2018-10-19T10:49:04.017Z,45.67
2018-10-19T10:51:34.656Z,43.97
2018-10-19T10:54:05.337Z,42.63
2018-10-19T10:56:36.925Z,37.33
2018-10-19T10:59:07.502Z,40.80
2018-10-19T11:01:38.334Z,38.20
2018-10-19T11:04:09.176Z,36.73
2018-10-19T11:06:40.062Z,33.40
2018-10-19T11:09:12.184Z,34.47
2018-10-19T11:11:43.343Z,32.27
2018-10-19T11:14:14.021Z,29.50
2018-10-19T11:16:44.597Z,32.33
2018-10-19T11:19:15.118Z,32.37
2018-10-19T11:21:48.880Z,31.63
2018-10-19T11:24:19.801Z,30.60
2018-10-19T11:26:50.348Z,30.67
2018-10-19T11:29:21.116Z,31.40
2018-10-19T11:31:51.603Z,32.47
2018-10-19T11:34:22.292Z,32.40
2018-10-19T11:36:53.009Z,32.43
2018-10-19T11:39:24.079Z,35.30
2018-10-19T11:41:54.577Z,30.80
2018-10-19T11:44:25.053Z,31.00
2018-10-19T11:47:00.349Z,30.57
2018-10-19T11:49:32.804Z,31.40
2018-10-19T11:52:03.684Z,32.77
2018-10-19T11:54:34.180Z,31.33
2018-10-19T11:57:05.364Z,32.63
2018-10-19T11:59:35.906Z,30.27
2018-10-19T12:02:07.287Z,32.40
2018-10-19T12:04:37.831Z,31.97
2018-10-19T12:07:08.442Z,32.67
2018-10-19T12:09:39.156Z,33.53
2018-10-19T12:12:09.794Z,32.20
2018-10-19T12:14:40.208Z,31.90
2018-10-19T12:17:10.835Z,31.57
2018-10-19T12:19:41.332Z,30.93
2018-10-19T12:22:12.211Z,31.60
2018-10-19T12:24:43.064Z,31.17
2018-10-19T12:27:13.844Z,31.50
2018-10-19T12:29:45.758Z,31.33
2018-10-19T12:32:16.336Z,30.20
2018-10-19T12:34:47.018Z,33.40
2018-10-19T12:37:17.578Z,33.97
2018-10-19T12:39:48.158Z,34.50
2018-10-19T12:42:18.885Z,33.40
2018-10-19T12:44:49.501Z,35.03
2018-10-19T12:47:30.433Z,33.57
2018-10-19T12:50:00.957Z,33.40
2018-10-19T12:52:31.951Z,33.27
2018-10-19T12:55:02.971Z,34.40
2018-10-19T12:57:33.733Z,33.93
2018-10-19T13:00:04.504Z,34.27
2018-10-19T13:02:35.694Z,30.90
2018-10-19T13:05:06.263Z,35.00
2018-10-19T13:07:36.736Z,38.93
2018-10-19T13:10:07.445Z,36.53
2018-10-19T13:12:38.052Z,35.60
2018-10-19T13:15:08.869Z,35.07
2018-10-19T13:17:39.585Z,34.73
2018-10-19T13:20:10.181Z,38.63
2018-10-19T13:22:40.624Z,38.97
2018-10-19T13:25:11.114Z,40.03
2018-10-19T13:27:42.143Z,39.73
2018-10-19T13:30:12.679Z,34.07
2018-10-19T13:32:43.321Z,33.93
2018-10-19T13:35:14.145Z,34.67
2018-10-19T13:37:44.829Z,34.47
2018-10-19T13:40:15.416Z,34.07
2018-10-19T13:42:47.805Z,34.57
2018-10-19T13:45:19.769Z,33.13
2018-10-19T13:47:51.707Z,33.83
2018-10-19T13:50:22.609Z,33.07
2018-10-19T13:52:53.079Z,34.77
2018-10-19T13:55:23.843Z,34.33
2018-10-19T13:57:54.960Z,34.67
2018-10-19T14:00:27.028Z,35.73
2018-10-19T14:02:58.367Z,34.03
2018-10-19T14:05:29.282Z,34.27
2018-10-19T14:07:59.782Z,32.77
2018-10-19T14:10:30.193Z,33.13
2018-10-19T14:13:00.910Z,35.53
2018-10-19T14:15:31.495Z,33.17
2018-10-19T14:18:01.976Z,34.70
2018-10-19T14:20:32.542Z,33.50
2018-10-19T14:23:03.444Z,34.67
2018-10-19T14:25:37.301Z,32.97
2018-10-19T14:28:14.923Z,34.47
2018-10-19T14:30:45.321Z,32.33
2018-10-19T14:33:15.771Z,32.70
2018-10-19T14:35:46.096Z,32.37
2018-10-19T14:38:18.651Z,32.57
2018-10-19T14:40:49.016Z,32.83
2018-10-19T14:43:19.404Z,33.57
2018-10-19T14:45:49.808Z,32.00
2018-10-19T14:48:20.276Z,33.43
2018-10-19T14:50:50.767Z,34.00
2018-10-19T14:53:21.264Z,37.93
2018-10-19T14:55:51.774Z,34.77
2018-10-19T14:58:22.206Z,36.27
2018-10-19T15:00:52.580Z,34.27
2018-10-19T15:03:24.137Z,34.87
2018-10-19T15:05:54.751Z,35.67
2018-10-19T15:08:25.171Z,39.47
2018-10-19T15:10:55.705Z,44.23
2018-10-19T15:13:25.957Z,40.60
2018-10-19T15:15:56.636Z,43.10
2018-10-19T15:18:27.088Z,47.70
2018-10-19T15:20:57.552Z,50.07
2018-10-19T15:23:27.922Z,50.53
2018-10-19T15:25:58.218Z,60.10
2018-10-19T15:28:31.910Z,57.77
2018-10-19T15:31:02.252Z,50.77
2018-10-19T15:33:33.051Z,52.57
2018-10-19T15:36:03.510Z,50.07
2018-10-19T15:38:33.803Z,48.13
2018-10-19T15:41:04.184Z,44.53
2018-10-19T15:43:34.554Z,45.10
2018-10-19T15:46:05.135Z,47.10
2018-10-19T15:48:36.021Z,46.20
2018-10-19T15:51:07.097Z,46.77
2018-10-19T15:53:37.594Z,49.20
2018-10-19T15:56:08.218Z,47.27
2018-10-19T15:58:38.611Z,48.57
2018-10-19T16:01:09.191Z,43.70
2018-10-19T16:03:39.499Z,46.20
2018-10-19T16:06:10.126Z,45.87
2018-10-19T16:08:40.716Z,55.53
2018-10-19T16:11:11.408Z,52.73
2018-10-19T16:13:42.709Z,54.17
2018-10-19T16:16:13.656Z,55.33
2018-10-19T16:18:44.003Z,50.33
2018-10-19T16:21:14.372Z,43.90
2018-10-19T16:23:44.971Z,41.17
2018-10-19T16:26:15.267Z,43.47
2018-10-19T16:28:45.833Z,41.47
2018-10-19T16:31:16.102Z,41.10
2018-10-19T16:33:46.459Z,43.97
2018-10-19T16:36:16.938Z,41.80
2018-10-19T16:38:47.224Z,41.03
2018-10-19T16:41:17.935Z,42.27
2018-10-19T16:43:48.313Z,43.63
2018-10-19T16:46:18.982Z,43.50
2018-10-19T16:48:49.298Z,39.63
2018-10-19T16:51:19.654Z,41.93
2018-10-19T16:53:50.116Z,41.37
2018-10-19T16:56:39.466Z,40.83
2018-10-19T16:59:09.971Z,38.87
2018-10-19T17:01:40.828Z,37.50
2018-10-19T17:04:11.522Z,39.17
2018-10-19T17:06:41.883Z,42.23
2018-10-19T17:09:14.138Z,42.00
2018-10-19T17:11:44.591Z,42.70
2018-10-19T17:14:15.010Z,42.50
2018-10-19T17:16:45.286Z,37.33
2018-10-19T17:19:17.137Z,37.13
2018-10-19T17:21:47.714Z,35.03
2018-10-19T17:24:18.255Z,34.03
2018-10-19T17:26:49.020Z,32.53
2018-10-19T17:29:19.419Z,32.20
2018-10-19T17:31:49.989Z,33.63
2018-10-19T17:34:21.091Z,30.10
2018-10-19T17:36:51.512Z,30.43
2018-10-19T17:41:52.565Z,28.97
2018-10-19T17:44:23.127Z,29.43
2018-10-19T17:46:54.349Z,28.23
2018-10-19T17:49:24.956Z,28.87
2018-10-19T17:51:55.395Z,28.17
2018-10-19T17:54:25.962Z,28.07
2018-10-19T17:56:56.654Z,27.43
2018-10-19T17:59:28.812Z,26.07
2018-10-19T18:02:00.929Z,27.90
2018-10-19T18:04:31.569Z,27.57
2018-10-19T18:07:02.200Z,26.10
2018-10-19T18:09:32.920Z,27.20
2018-10-19T18:12:05.024Z,26.83
2018-10-19T18:14:35.555Z,27.60
2018-10-19T18:17:06.088Z,26.83
2018-10-19T18:19:36.593Z,25.70
2018-10-19T18:22:07.305Z,25.33
2018-10-19T18:24:37.730Z,26.70
2018-10-19T18:27:08.414Z,27.00
2018-10-19T18:29:38.970Z,26.27
2018-10-19T18:32:09.626Z,26.43
2018-10-19T18:34:40.001Z,25.00
2018-10-19T18:37:10.502Z,24.93
2018-10-19T18:39:41.030Z,25.63
2018-10-19T18:42:11.758Z,26.47
2018-10-19T18:44:42.323Z,24.27
2018-10-19T18:47:13.587Z,25.60
2018-10-19T18:49:44.273Z,24.97
2018-10-19T18:52:14.746Z,25.27
2018-10-19T18:54:45.201Z,25.03
2018-10-19T18:57:15.779Z,25.80
2018-10-19T18:59:46.490Z,26.53
2018-10-19T19:02:17.597Z,26.23
2018-10-19T19:04:48.435Z,26.30
2018-10-19T19:07:19.371Z,28.23
2018-10-19T19:09:55.958Z,27.43
2018-10-19T19:12:35.107Z,27.40
2018-10-19T19:15:12.609Z,27.43
2018-10-19T19:17:46.330Z,27.83
2018-10-19T19:20:26.663Z,27.57
2018-10-19T19:23:00.958Z,27.97
2018-10-19T19:25:36.690Z,29.03
2018-10-19T19:28:07.395Z,27.60
2018-10-19T19:30:38.863Z,27.60
2018-10-19T19:33:15.591Z,28.67
2018-10-19T19:35:50.596Z,26.43
2018-10-19T19:38:21.737Z,28.67
2018-10-19T19:40:58.761Z,27.80
2018-10-19T19:43:30.502Z,29.30
2018-10-19T19:48:40.045Z,30.13
2018-10-19T19:51:28.857Z,31.53
2018-10-19T19:54:00.256Z,32.37
2018-10-19T19:56:31.223Z,30.37
2018-10-19T19:59:02.744Z,29.57
2018-10-19T20:01:36.658Z,28.17
2018-10-19T20:04:07.393Z,28.90
2018-10-19T20:06:38.565Z,29.43
2018-10-19T20:09:11.161Z,27.57
2018-10-19T20:11:43.119Z,28.87
2018-10-19T20:14:14.403Z,30.70
2018-10-19T20:16:44.975Z,31.77
2018-10-19T20:19:15.740Z,33.80
2018-10-19T20:21:47.111Z,35.57
2018-10-19T20:24:18.097Z,37.50
2018-10-19T20:26:48.663Z,38.77
2018-10-19T20:29:19.249Z,39.67
2018-10-19T20:31:49.952Z,39.63
2018-10-19T20:34:20.468Z,38.53
2018-10-19T20:36:51.063Z,36.90
2018-10-19T20:39:21.586Z,36.30
2018-10-19T20:41:52.970Z,36.47
2018-10-19T20:44:24.531Z,33.40
2018-10-19T20:46:54.829Z,33.37
2018-10-19T20:49:29.489Z,32.97
2018-10-19T20:52:01.938Z,34.00
2018-10-19T20:54:36.222Z,33.07
2018-10-19T20:57:08.669Z,32.07
2018-10-19T20:59:41.143Z,33.10
2018-10-19T21:02:14.121Z,34.30
2018-10-19T21:04:47.066Z,32.80
2018-10-19T21:07:21.611Z,33.50
2018-10-19T21:09:55.570Z,32.43
2018-10-19T21:12:27.648Z,33.23
2018-10-19T21:15:00.275Z,33.37
2018-10-19T21:17:31.369Z,31.47
2018-10-19T21:20:13.211Z,32.13
2018-10-19T21:22:46.454Z,31.67
2018-10-19T21:25:18.839Z,32.20
2018-10-19T21:27:49.485Z,31.07
2018-10-19T21:30:20.171Z,31.77
2018-10-19T21:32:50.587Z,29.87
2018-10-19T21:35:21.160Z,32.07
2018-10-19T21:37:51.569Z,31.07
2018-10-19T21:40:22.000Z,30.67
2018-10-19T21:42:52.628Z,30.30
2018-10-19T21:45:23.098Z,30.63
2018-10-19T21:47:53.539Z,30.87
2018-10-19T21:50:24.127Z,29.77
2018-10-19T21:52:54.917Z,29.73
2018-10-19T21:55:25.246Z,29.63
2018-10-19T21:57:55.623Z,29.83
2018-10-19T22:00:26.198Z,29.77
2018-10-19T22:02:56.554Z,29.50
2018-10-19T22:05:26.874Z,29.00
2018-10-19T22:07:57.222Z,29.43
2018-10-19T22:10:27.745Z,30.23
2018-10-19T22:12:58.078Z,28.20
2018-10-19T22:15:28.721Z,29.20
2018-10-19T22:17:59.636Z,29.27
2018-10-19T22:20:30.154Z,28.93
2018-10-19T22:23:00.502Z,29.87
2018-10-19T22:25:32.725Z,28.27
2018-10-19T22:28:02.951Z,29.77
2018-10-19T22:30:33.466Z,29.00
2018-10-19T22:33:03.994Z,31.85
2018-10-19T22:35:34.327Z,30.23
2018-10-19T22:38:04.554Z,29.67
2018-10-19T22:40:35.258Z,30.20
2018-10-19T22:43:05.805Z,30.20
2018-10-19T22:45:36.133Z,30.27
2018-10-19T22:48:06.986Z,30.97
2018-10-19T22:50:37.290Z,31.10
2018-10-19T22:53:07.807Z,30.37
2018-10-19T22:55:38.211Z,30.33
2018-10-19T22:58:08.553Z,30.50
2018-10-19T23:00:39.142Z,31.97
2018-10-19T23:03:09.463Z,32.57
2018-10-19T23:05:39.992Z,31.33
2018-10-19T23:08:10.360Z,31.80
2018-10-19T23:10:40.847Z,33.60
2018-10-19T23:13:11.410Z,31.83
2018-10-19T23:15:42.280Z,32.70
2018-10-19T23:18:12.647Z,33.80
2018-10-19T23:20:43.009Z,33.23
2018-10-19T23:23:13.727Z,32.60
2018-10-19T23:25:44.762Z,33.57
2018-10-19T23:28:15.008Z,32.37
2018-10-19T23:30:45.446Z,32.90
2018-10-19T23:33:15.967Z,31.60
2018-10-19T23:35:46.776Z,32.60
2018-10-19T23:38:17.118Z,31.67
2018-10-19T23:40:47.517Z,33.27
2018-10-19T23:43:17.898Z,32.50
2018-10-19T23:45:48.127Z,31.93
2018-10-19T23:48:18.446Z,31.23
2018-10-19T23:50:48.799Z,31.43
2018-10-19T23:53:19.171Z,31.43
2018-10-19T23:55:49.530Z,31.53
2018-10-19T23:58:19.788Z,30.90
